Time;durP1;ratioP1;P1;durP2;ratioP2;P2;SDS_P1;SDS_P2;PMS_P1;PMS_P2;Temp;Humidity;BMP_temperature;BMP_pressure;BME280_temperature;BME280_humidity;BME280_pressure;Samples;Min_cycle;Max_cycle;Signal;HPM_P1;HPM_P2
2021/07/09 00:01:41;;;;;;;7.47;6.77;;;;;;;25.80;48.99;95617.09;5069739;28;20206;-63
2021/07/09 00:04:09;;;;;;;10.43;6.73;;;;;;;25.91;48.92;95622.81;5082939;28;20582;-65
2021/07/09 00:06:36;;;;;;;8.33;6.33;;;;;;;25.82;49.41;95630.19;5076696;28;20194;-63
2021/07/09 00:09:04;;;;;;;7.23;6.53;;;;;;;25.80;49.22;95627.06;5089829;28;20683;-64
2021/07/09 00:11:34;;;;;;;9.10;7.20;;;;;;;25.82;49.55;95632.88;5089454;28;20213;-65
2021/07/09 00:14:02;;;;;;;7.70;7.00;;;;;;;25.73;49.44;95646.38;5077254;28;20555;-65
2021/07/09 00:16:29;;;;;;;8.67;6.90;;;;;;;25.66;49.77;95640.00;5087856;28;20572;-66
2021/07/09 00:18:59;;;;;;;9.57;7.60;;;;;;;25.66;50.20;95648.03;5089699;28;20302;-62
2021/07/09 00:21:26;;;;;;;12.77;7.70;;;;;;;25.55;50.31;95646.91;5088845;28;20595;-64
2021/07/09 00:23:54;;;;;;;11.07;8.57;;;;;;;25.46;50.60;95643.50;5088717;28;20230;-65
2021/07/09 00:26:21;;;;;;;14.83;8.87;;;;;;;25.56;51.42;95643.13;5078508;28;20221;-66
2021/07/09 00:28:48;;;;;;;9.47;8.37;;;;;;;25.61;50.60;95635.63;5077218;28;20214;-62
2021/07/09 00:31:14;;;;;;;11.10;8.27;;;;;;;25.64;50.81;95634.16;5077368;28;20242;-66
2021/07/09 00:33:41;;;;;;;8.80;7.90;;;;;;;25.27;51.22;95627.13;5078626;28;20246;-62
2021/07/09 00:36:09;;;;;;;8.83;7.93;;;;;;;25.06;52.08;95619.88;5079220;28;20198;-63
2021/07/09 00:38:36;;;;;;;9.40;8.50;;;;;;;25.15;52.05;95613.63;5075243;28;20208;-65
2021/07/09 00:41:03;;;;;;;10.03;7.93;;;;;;;25.23;51.58;95605.53;5088724;28;20191;-63
2021/07/09 00:43:30;;;;;;;11.77;7.90;;;;;;;25.28;51.24;95615.25;5074792;28;20200;-63
2021/07/09 00:45:57;;;;;;;10.83;8.47;;;;;;;25.25;51.44;95610.56;5087506;28;20191;-62
2021/07/09 00:48:28;;;;;;;9.83;7.70;;;;;;;25.11;51.36;95620.81;5089372;28;20268;-65
2021/07/09 00:51:00;;;;;;;8.30;7.47;;;;;;;25.23;51.47;95618.16;5088725;28;20191;-65
2021/07/09 00:53:27;;;;;;;10.07;6.73;;;;;;;24.96;51.75;95616.81;5089200;28;20285;-63
2021/07/09 00:55:54;;;;;;;10.67;7.10;;;;;;;25.03;51.38;95615.19;5076175;28;20209;-65
2021/07/09 00:58:21;;;;;;;8.27;7.40;;;;;;;24.99;51.59;95616.94;5068532;28;20238;-64
2021/07/09 01:00:49;;;;;;;8.97;7.37;;;;;;;24.92;51.46;95613.22;5076829;28;20191;-63
2021/07/09 01:03:17;;;;;;;8.63;7.40;;;;;;;24.96;51.49;95604.19;5079279;28;20198;-63
2021/07/09 01:05:44;;;;;;;8.37;7.03;;;;;;;24.92;51.46;95597.94;5084302;28;20278;-63
2021/07/09 01:08:12;;;;;;;11.33;7.23;;;;;;;25.00;51.60;95599.72;5089449;28;20223;-66
2021/07/09 01:10:41;;;;;;;9.57;7.90;;;;;;;25.01;51.17;95595.16;5089395;28;20210;-66
2021/07/09 01:13:08;;;;;;;10.33;7.67;;;;;;;24.99;51.03;95600.84;5084202;28;20199;-65
2021/07/09 01:15:36;;;;;;;8.00;7.20;;;;;;;24.90;51.00;95600.16;5079608;28;20408;-63
2021/07/09 01:18:04;;;;;;;10.67;7.33;;;;;;;24.99;50.80;95603.53;5085207;28;20191;-66
2021/07/09 01:20:32;;;;;;;9.03;8.13;;;;;;;24.84;51.69;95604.13;5083406;28;20253;-64
2021/07/09 01:23:01;;;;;;;8.37;7.50;;;;;;;24.74;51.93;95601.84;5079489;28;20187;-66
2021/07/09 01:25:29;;;;;;;8.33;7.50;;;;;;;24.52;52.28;95604.84;5078662;28;20199;-64
2021/07/09 01:28:03;;;;;;;8.23;6.93;;;;;;;24.76;51.84;95604.22;5077222;28;20750;-65
2021/07/09 01:30:30;;;;;;;7.90;7.20;;;;;;;24.81;51.77;95607.47;5077377;28;20799;-62
2021/07/09 01:32:57;;;;;;;9.13;6.90;;;;;;;24.87;52.12;95616.88;5078757;28;20231;-63
2021/07/09 01:35:25;;;;;;;7.90;7.20;;;;;;;24.84;52.17;95612.19;5060800;28;20220;-66
2021/07/09 01:38:11;;;;;;;9.30;7.10;;;;;;;24.88;52.16;95612.31;5080821;28;20191;-63
2021/07/09 01:40:39;;;;;;;8.20;6.70;;;;;;;24.95;51.76;95612.56;5089064;28;20214;-63
2021/07/09 01:43:07;;;;;;;8.50;7.53;;;;;;;24.81;52.05;95607.47;5092688;28;20268;-65
2021/07/09 01:45:35;;;;;;;8.53;7.23;;;;;;;24.61;52.86;95618.97;5075615;28;20653;-64
2021/07/09 01:48:05;;;;;;;8.57;7.73;;;;;;;24.66;53.08;95615.28;5072165;28;20199;-64
2021/07/09 01:50:32;;;;;;;11.23;8.53;;;;;;;24.69;52.86;95615.41;5087399;28;20203;-65
2021/07/09 01:52:59;;;;;;;9.27;7.50;;;;;;;24.72;52.80;95622.84;5093349;28;20188;-62
2021/07/09 01:55:26;;;;;;;8.47;7.00;;;;;;;24.64;53.28;95618.28;5093880;28;20226;-63
2021/07/09 01:57:53;;;;;;;10.57;7.67;;;;;;;24.57;53.03;95618.03;5078967;28;20202;-63
2021/07/09 02:00:23;;;;;;;9.23;6.57;;;;;;;24.62;53.02;95620.50;5080877;28;20619;-63
2021/07/09 02:02:50;;;;;;;10.53;7.10;;;;;;;24.68;52.98;95619.22;5085957;28;20191;-63
2021/07/09 02:05:19;;;;;;;9.00;6.80;;;;;;;24.66;53.14;95618.75;5081635;28;20195;-62
2021/07/09 02:07:49;;;;;;;15.90;7.47;;;;;;;24.68;53.21;95613.84;5077483;28;20692;-63
2021/07/09 02:10:19;;;;;;;8.37;7.57;;;;;;;24.59;53.20;95615.81;5091242;28;20203;-61
2021/07/09 02:12:49;;;;;;;8.63;7.73;;;;;;;24.49;53.75;95615.41;5091691;28;20195;-66
2021/07/09 02:15:17;;;;;;;11.50;7.93;;;;;;;24.44;53.83;95619.06;5082809;28;20246;-65
2021/07/09 02:17:44;;;;;;;8.93;7.43;;;;;;;24.59;53.49;95615.81;5086085;28;20206;-65
2021/07/09 02:20:16;;;;;;;8.87;7.97;;;;;;;24.75;53.41;95618.72;5091398;28;20195;-63
2021/07/09 02:22:44;;;;;;;7.90;7.10;;;;;;;24.69;53.02;95611.97;5091347;28;20248;-63
2021/07/09 02:25:13;;;;;;;10.50;8.30;;;;;;;24.28;54.02;95610.03;5079680;28;20195;-64
2021/07/09 02:27:44;;;;;;;12.03;9.00;;;;;;;24.30;54.53;95618.53;5079503;28;20661;-64
2021/07/09 02:30:13;;;;;;;9.67;8.17;;;;;;;24.41;54.33;95629.63;5079478;28;20944;-67
2021/07/09 02:32:40;;;;;;;12.50;8.77;;;;;;;24.58;53.72;95624.94;5080353;28;20342;-63
2021/07/09 02:35:11;;;;;;;12.50;8.73;;;;;;;24.61;53.48;95624.31;5062421;28;20228;-67
2021/07/09 02:37:38;;;;;;;10.37;8.57;;;;;;;24.73;53.26;95621.72;5080460;28;20238;-65
2021/07/09 02:40:07;;;;;;;12.43;8.20;;;;;;;24.83;52.73;95620.56;5075948;28;20208;-63
2021/07/09 02:42:34;;;;;;;10.87;7.90;;;;;;;24.82;52.89;95622.44;5073741;28;20624;-63
2021/07/09 02:45:01;;;;;;;13.40;8.13;;;;;;;24.73;53.05;95616.38;5069865;28;20200;-63
2021/07/09 02:47:28;;;;;;;8.60;7.67;;;;;;;24.68;53.14;95619.22;5076466;28;20192;-64
2021/07/09 02:49:55;;;;;;;13.80;7.90;;;;;;;24.67;53.32;95620.31;5081404;28;20187;-64
2021/07/09 02:52:23;;;;;;;9.77;7.77;;;;;;;24.63;53.92;95616.75;5071153;28;20309;-63
2021/07/09 02:54:50;;;;;;;9.10;8.20;;;;;;;24.50;53.87;95617.78;5071827;28;20223;-63
2021/07/09 02:57:16;;;;;;;11.03;7.47;;;;;;;24.34;54.45;95627.50;5072402;28;20753;-64
2021/07/09 02:59:43;;;;;;;9.07;7.40;;;;;;;24.35;54.44;95629.03;5078077;28;20564;-63
2021/07/09 03:02:10;;;;;;;10.10;8.67;;;;;;;24.42;54.71;95623.97;5076767;28;20184;-64
2021/07/09 03:04:37;;;;;;;12.37;8.63;;;;;;;24.34;54.89;95632.06;5072316;28;20204;-65
2021/07/09 03:07:04;;;;;;;8.80;7.90;;;;;;;24.38;54.92;95620.34;5066484;28;20725;-63
2021/07/09 03:09:31;;;;;;;8.47;7.63;;;;;;;24.38;54.70;95625.72;5084208;28;20202;-70
2021/07/09 03:11:58;;;;;;;9.77;7.67;;;;;;;24.48;54.33;95619.97;5084818;28;20187;-68
2021/07/09 03:14:24;;;;;;;9.30;7.13;;;;;;;24.10;55.37;95621.94;5075850;28;20245;-67
2021/07/09 03:16:51;;;;;;;9.17;7.83;;;;;;;24.08;55.91;95632.19;5084357;28;20279;-65
2021/07/09 03:19:18;;;;;;;8.73;7.30;;;;;;;24.24;55.41;95627.06;5090263;28;20600;-63
2021/07/09 03:21:46;;;;;;;10.23;7.37;;;;;;;24.20;55.41;95624.25;5090061;28;20201;-67
2021/07/09 03:24:14;;;;;;;7.53;6.83;;;;;;;24.10;55.98;95609.31;5090917;28;20191;-67
2021/07/09 03:26:41;;;;;;;8.93;7.37;;;;;;;24.10;55.81;95625.38;5091358;28;20195;-70
2021/07/09 03:29:08;;;;;;;8.47;7.50;;;;;;;24.15;55.70;95621.75;5090487;28;20198;-70
2021/07/09 03:31:34;;;;;;;8.57;7.33;;;;;;;24.25;55.44;95626.72;5089467;28;20720;-66
2021/07/09 03:34:02;;;;;;;8.10;7.30;;;;;;;24.44;55.07;95624.41;5090305;28;20308;-68
2021/07/09 03:36:29;;;;;;;11.77;7.93;;;;;;;24.50;55.29;95625.81;5076343;28;20724;-66
2021/07/09 03:38:58;;;;;;;11.20;8.23;;;;;;;24.59;55.35;95631.91;5075608;28;20712;-71
2021/07/09 03:42:30;;;;;;;8.87;7.43;;;;;;;24.59;54.75;95626.53;5044235;28;20574;-67
2021/07/09 03:44:57;;;;;;;7.60;6.80;;;;;;;24.49;54.86;95629.59;5044845;28;20203;-71
2021/07/09 03:47:24;;;;;;;9.67;6.90;;;;;;;24.19;56.02;95628.03;5046447;28;20197;-64
2021/07/09 03:49:51;;;;;;;11.03;7.63;;;;;;;24.42;55.74;95631.19;5045845;28;20185;-68
2021/07/09 03:52:17;;;;;;;9.37;7.43;;;;;;;24.53;55.51;95635.88;5046387;28;20204;-63
2021/07/09 03:54:45;;;;;;;8.53;7.40;;;;;;;24.65;54.94;95635.16;5045580;28;20254;-65
2021/07/09 03:57:11;;;;;;;7.50;6.77;;;;;;;24.67;55.32;95619.53;5046098;28;20215;-68
2021/07/09 03:59:38;;;;;;;8.23;7.37;;;;;;;24.66;55.26;95620.66;5045507;28;20196;-67
2021/07/09 04:02:06;;;;;;;11.13;7.40;;;;;;;24.79;55.24;95615.06;5044575;28;20216;-66
2021/07/09 04:04:36;;;;;;;10.97;7.53;;;;;;;24.75;54.93;95614.16;5044810;28;20203;-68
2021/07/09 04:07:03;;;;;;;10.30;7.83;;;;;;;24.46;55.88;95616.06;5045487;28;20315;-67
2021/07/09 04:09:30;;;;;;;7.70;6.87;;;;;;;24.69;55.59;95620.78;5044108;28;20762;-69
2021/07/09 04:11:57;;;;;;;9.43;8.03;;;;;;;24.85;54.68;95624.47;5044955;28;20290;-64
2021/07/09 04:14:25;;;;;;;9.60;7.40;;;;;;;24.86;54.77;95615.31;5044152;28;20205;-65
2021/07/09 04:16:52;;;;;;;10.27;8.37;;;;;;;24.83;55.06;95626.72;5044688;28;20215;-64
2021/07/09 04:19:19;;;;;;;12.17;7.60;;;;;;;24.96;55.04;95622.94;5043987;28;20197;-63
2021/07/09 04:21:47;;;;;;;9.80;8.40;;;;;;;24.63;55.40;95622.09;5044319;28;20570;-64
2021/07/09 04:24:14;;;;;;;8.60;7.70;;;;;;;24.98;54.65;95623.41;5044514;28;20208;-64
2021/07/09 04:26:41;;;;;;;13.47;8.47;;;;;;;25.13;54.66;95623.94;5044958;28;20192;-65
2021/07/09 04:29:08;;;;;;;12.13;9.50;;;;;;;24.74;55.24;95623.28;5043136;28;20284;-66
2021/07/09 04:31:34;;;;;;;10.70;8.67;;;;;;;24.83;55.50;95631.28;5045411;28;20192;-64
2021/07/09 04:34:01;;;;;;;13.43;9.43;;;;;;;24.86;55.63;95626.03;5045561;28;20204;-64
2021/07/09 04:36:28;;;;;;;12.57;8.63;;;;;;;24.74;55.63;95634.00;5044382;28;20279;-67
2021/07/09 04:38:55;;;;;;;11.03;9.20;;;;;;;24.62;55.89;95614.34;5044961;28;20196;-64
2021/07/09 04:41:22;;;;;;;11.70;9.23;;;;;;;24.74;55.98;95611.78;5043843;28;20240;-63
2021/07/09 04:43:49;;;;;;;11.50;8.57;;;;;;;24.83;55.66;95621.34;5042677;28;20199;-66
2021/07/09 04:46:16;;;;;;;12.47;8.20;;;;;;;24.73;55.79;95621.72;5046103;28;20262;-65
2021/07/09 04:48:44;;;;;;;16.87;8.70;;;;;;;25.00;55.02;95621.19;5044490;28;20217;-66
2021/07/09 04:51:11;;;;;;;34.20;29.67;;;;;;;24.66;56.16;95616.06;5040881;28;20228;-66
2021/07/09 04:53:38;;;;;;;31.53;28.40;;;;;;;24.92;55.71;95616.69;5032127;28;20203;-66
2021/07/09 04:56:05;;;;;;;15.63;9.83;;;;;;;24.80;55.96;95605.91;5030131;28;20550;-65
2021/07/09 04:58:32;;;;;;;11.03;9.03;;;;;;;24.97;55.86;95621.06;5029942;28;20193;-66
2021/07/09 05:00:59;;;;;;;12.13;8.73;;;;;;;25.11;55.41;95618.13;5030298;28;20260;-66
2021/07/09 05:03:26;;;;;;;12.77;8.80;;;;;;;25.07;55.33;95616.06;5030939;28;20226;-66
2021/07/09 05:05:53;;;;;;;13.10;8.83;;;;;;;25.14;54.79;95625.50;5030433;28;20667;-66
2021/07/09 05:08:20;;;;;;;35.97;32.07;;;;;;;24.68;55.91;95613.06;5031391;28;20663;-67
2021/07/09 05:10:47;;;;;;;17.30;15.03;;;;;;;25.08;54.87;95612.28;5028069;28;20201;-65
2021/07/09 05:13:13;;;;;;;17.40;14.40;;;;;;;25.21;55.03;95602.38;5030584;28;20280;-65
2021/07/09 05:15:41;;;;;;;12.47;8.90;;;;;;;25.22;54.69;95608.53;5030666;28;20189;-65
2021/07/09 05:18:07;;;;;;;11.23;8.93;;;;;;;25.05;55.66;95612.94;5030667;28;20197;-65
2021/07/09 05:20:34;;;;;;;12.53;9.63;;;;;;;24.99;56.37;95611.59;5032080;28;20698;-66
2021/07/09 05:23:01;;;;;;;13.10;9.20;;;;;;;25.19;55.50;95607.28;5034329;28;20197;-64
2021/07/09 05:25:28;;;;;;;12.70;9.40;;;;;;;25.25;55.69;95599.84;5032617;28;20189;-65
2021/07/09 05:27:56;;;;;;;10.73;8.47;;;;;;;25.36;54.91;95596.41;5030530;28;20201;-65
2021/07/09 05:30:23;;;;;;;10.30;8.90;;;;;;;25.27;55.17;95594.91;5030204;28;20191;-64
2021/07/09 05:32:50;;;;;;;11.03;9.73;;;;;;;25.56;54.84;95594.81;5031663;28;20201;-65
2021/07/09 05:35:17;;;;;;;10.80;9.57;;;;;;;25.34;55.33;95593.28;5031321;28;20205;-65
2021/07/09 05:37:44;;;;;;;11.87;9.83;;;;;;;25.51;55.67;95592.34;5031325;28;20292;-65
2021/07/09 05:40:11;;;;;;;14.03;9.83;;;;;;;25.70;54.74;95588.00;5030720;28;20209;-66
2021/07/09 05:42:42;;;;;;;10.97;9.33;;;;;;;25.67;54.93;95593.25;5018676;28;20217;-66
2021/07/09 05:45:09;;;;;;;12.00;9.53;;;;;;;25.81;54.30;95591.03;5031176;28;20335;-65
2021/07/09 05:47:38;;;;;;;23.40;11.53;;;;;;;25.75;54.87;95587.78;5031770;28;20201;-66
2021/07/09 05:50:06;;;;;;;15.43;9.90;;;;;;;25.84;55.05;95591.13;5030822;28;20208;-65
2021/07/09 05:52:34;;;;;;;11.27;10.13;;;;;;;25.97;54.94;95583.88;5031020;28;20189;-67
2021/07/09 05:55:00;;;;;;;15.00;10.20;;;;;;;25.89;54.20;95582.84;5030842;28;20197;-65
2021/07/09 05:57:27;;;;;;;15.63;11.43;;;;;;;26.27;53.12;95590.63;5030967;28;20663;-65
2021/07/09 05:59:54;;;;;;;11.50;10.33;;;;;;;26.08;53.43;95593.06;5029432;28;20201;-65
2021/07/09 06:02:21;;;;;;;15.47;11.60;;;;;;;26.01;54.03;95587.44;5031071;28;20620;-66
2021/07/09 06:04:48;;;;;;;13.40;11.23;;;;;;;26.29;54.28;95583.00;5015648;28;20189;-64
2021/07/09 06:07:15;;;;;;;15.97;12.53;;;;;;;26.17;53.53;95582.22;5031395;28;20585;-64
2021/07/09 06:09:42;;;;;;;14.33;11.43;;;;;;;26.69;52.83;95583.84;5030065;28;20204;-65
2021/07/09 06:12:09;;;;;;;14.83;12.90;;;;;;;26.44;52.97;95584.22;5031420;28;20579;-64
2021/07/09 06:14:36;;;;;;;18.30;12.50;;;;;;;26.34;54.21;95582.75;5030292;28;22511;-66
2021/07/09 06:17:03;;;;;;;18.97;13.53;;;;;;;26.69;52.79;95577.69;5031181;28;20189;-66
2021/07/09 06:19:30;;;;;;;15.03;13.47;;;;;;;26.74;53.09;95585.50;5030483;28;20201;-64
2021/07/09 06:21:58;;;;;;;14.17;12.00;;;;;;;26.90;52.52;95576.38;5030654;28;20232;-66
2021/07/09 06:24:25;;;;;;;14.50;12.77;;;;;;;27.14;52.06;95577.38;5025030;28;20204;-65
2021/07/09 06:26:52;;;;;;;15.80;12.57;;;;;;;27.21;51.67;95572.22;5022049;28;20197;-64
2021/07/09 06:29:19;;;;;;;17.23;13.47;;;;;;;27.07;52.01;95572.59;5029441;28;20686;-65
2021/07/09 06:31:46;;;;;;;16.20;14.07;;;;;;;26.83;52.97;95576.19;5030479;28;20581;-67
2021/07/09 06:34:13;;;;;;;16.63;14.10;;;;;;;26.84;52.94;95579.66;5029810;28;20197;-64
2021/07/09 06:36:40;;;;;;;18.97;14.80;;;;;;;26.76;52.77;95578.66;5030637;28;20209;-65
2021/07/09 06:39:07;;;;;;;22.13;14.33;;;;;;;27.21;52.02;95578.38;5029915;28;20193;-68
2021/07/09 06:41:34;;;;;;;17.90;14.77;;;;;;;27.18;51.36;95572.88;5016225;28;20236;-66
2021/07/09 06:44:01;;;;;;;19.13;14.60;;;;;;;27.18;53.22;95572.88;5030639;28;20212;-66
2021/07/09 06:46:28;;;;;;;18.97;13.97;;;;;;;27.23;51.30;95575.31;5029708;28;20197;-66
2021/07/09 06:48:55;;;;;;;20.60;14.47;;;;;;;26.82;51.65;95557.69;5030376;28;20205;-66
2021/07/09 06:51:22;;;;;;;14.33;12.50;;;;;;;27.13;51.00;95575.84;5029845;28;20223;-66
2021/07/09 06:53:49;;;;;;;16.00;12.40;;;;;;;27.13;50.95;95565.88;5030125;28;20201;-65
2021/07/09 06:56:16;;;;;;;20.67;14.20;;;;;;;27.30;51.22;95575.53;5029562;28;20565;-66
2021/07/09 06:58:43;;;;;;;16.80;14.40;;;;;;;27.22;51.43;95571.09;5030243;28;20204;-65
2021/07/09 07:01:10;;;;;;;19.03;14.60;;;;;;;27.20;51.62;95570.63;5029491;28;20199;-66
2021/07/09 07:03:37;;;;;;;17.80;13.73;;;;;;;27.41;50.93;95563.16;5030270;28;20197;-66
2021/07/09 07:06:04;;;;;;;17.30;13.63;;;;;;;27.61;50.58;95564.84;5029299;28;20580;-67
2021/07/09 07:08:31;;;;;;;17.33;14.37;;;;;;;27.70;50.30;95562.75;5029753;28;20223;-66
2021/07/09 07:10:58;;;;;;;14.23;12.07;;;;;;;27.52;49.78;95562.28;5029198;28;20208;-64
2021/07/09 07:13:25;;;;;;;12.23;11.03;;;;;;;27.52;50.35;95548.03;5030045;28;20588;-66
2021/07/09 07:15:53;;;;;;;15.63;11.30;;;;;;;27.57;49.92;95547.81;5027876;28;20201;-67
2021/07/09 07:18:20;;;;;;;14.23;11.57;;;;;;;27.57;50.75;95547.81;5030324;28;20197;-65
2021/07/09 07:20:47;;;;;;;13.60;10.63;;;;;;;27.54;48.19;95545.78;5028862;28;20193;-65
2021/07/09 07:23:17;;;;;;;11.10;9.70;;;;;;;27.84;47.34;95553.09;5029602;28;20217;-68
2021/07/09 07:25:46;;;;;;;12.47;10.10;;;;;;;27.87;48.48;95557.00;5029332;28;20201;-65
2021/07/09 07:28:13;;;;;;;18.23;12.10;;;;;;;27.93;49.04;95545.66;5029958;28;20288;-67
2021/07/09 07:31:01;;;;;;;13.67;11.50;;;;;;;28.22;48.37;95552.47;5028840;28;20208;-66
2021/07/09 07:33:28;;;;;;;12.03;10.70;;;;;;;28.49;47.61;95539.94;5029988;28;20201;-66
2021/07/09 07:36:11;;;;;;;11.50;8.87;;;;;;;28.41;46.59;95544.41;5028678;28;20651;-66
2021/07/09 07:38:38;;;;;;;13.97;7.87;;;;;;;28.29;46.68;95549.94;5029853;28;20193;-66
2021/07/09 07:41:05;;;;;;;9.77;8.50;;;;;;;28.38;45.54;95545.13;5028531;28;20735;-66
2021/07/09 07:43:32;;;;;;;12.53;9.57;;;;;;;28.34;46.06;95544.25;5030006;28;20224;-67
2021/07/09 07:45:59;;;;;;;11.83;8.97;;;;;;;28.16;46.52;95545.78;5029115;28;20205;-65
2021/07/09 07:48:26;;;;;;;9.43;8.23;;;;;;;28.46;44.82;95538.75;5029772;28;20205;-66
2021/07/09 07:50:53;;;;;;;11.70;9.87;;;;;;;28.09;45.65;95542.13;5028464;28;20201;-66
2021/07/09 07:53:19;;;;;;;10.53;9.40;;;;;;;28.56;45.85;95540.91;5029145;28;20213;-66
2021/07/09 07:55:46;;;;;;;11.23;7.87;;;;;;;28.50;43.80;95539.59;5028665;28;20615;-67
2021/07/09 07:58:13;;;;;;;11.50;8.17;;;;;;;28.78;43.34;95534.81;5029391;28;20683;-67
2021/07/09 08:00:40;;;;;;;10.73;8.13;;;;;;;28.88;44.01;95534.28;5028602;28;20211;-65
2021/07/09 08:03:07;;;;;;;9.50;8.50;;;;;;;28.88;43.65;95536.97;5031340;28;20311;-65
2021/07/09 08:05:33;;;;;;;10.47;8.23;;;;;;;29.14;43.20;95524.75;5030093;28;20199;-68
2021/07/09 08:08:00;;;;;;;8.90;8.00;;;;;;;29.15;42.97;95521.69;5031735;28;20201;-65
2021/07/09 08:10:27;;;;;;;10.27;7.77;;;;;;;29.02;43.15;95519.47;5030394;28;20198;-67
2021/07/09 08:12:54;;;;;;;14.03;7.50;;;;;;;28.77;42.30;95527.88;5030224;28;20603;-64
2021/07/09 08:15:21;;;;;;;8.90;7.50;;;;;;;29.21;41.67;95522.19;5032178;28;20211;-65
2021/07/09 08:17:48;;;;;;;9.40;7.50;;;;;;;29.15;41.93;95524.38;5031013;28;20208;-66
2021/07/09 08:20:16;;;;;;;6.30;5.70;;;;;;;29.11;40.17;95522.72;5029700;28;20201;-65
2021/07/09 08:22:43;;;;;;;6.23;5.63;;;;;;;29.15;40.17;95518.19;5028785;28;20228;-66
2021/07/09 08:25:11;;;;;;;9.13;7.17;;;;;;;29.45;40.87;95511.78;5028557;28;20676;-66
2021/07/09 08:27:39;;;;;;;11.57;7.97;;;;;;;29.44;41.78;95504.84;5030074;28;20194;-67
2021/07/09 08:30:08;;;;;;;10.23;7.23;;;;;;;29.58;40.58;95525.94;5032027;28;20204;-66
2021/07/09 08:32:35;;;;;;;10.23;7.13;;;;;;;29.73;40.31;95512.31;5032704;28;20565;-67
2021/07/09 08:35:04;;;;;;;9.10;8.20;;;;;;;29.75;41.65;95515.44;5032433;28;20201;-67
2021/07/09 08:37:49;;;;;;;8.37;7.47;;;;;;;29.57;40.74;95513.53;5032662;28;20201;-65
2021/07/09 08:40:16;;;;;;;7.90;7.03;;;;;;;29.68;39.95;95511.81;5032004;28;20193;-64
2021/07/09 08:42:43;;;;;;;7.17;6.43;;;;;;;29.29;39.88;95497.63;5032241;28;20239;-65
2021/07/09 08:45:10;;;;;;;8.40;7.67;;;;;;;29.70;40.56;95501.44;5032224;28;20600;-66
2021/07/09 08:47:37;;;;;;;9.00;7.57;;;;;;;29.76;40.35;95502.72;5032442;28;20201;-67
2021/07/09 08:50:07;;;;;;;8.93;7.00;;;;;;;29.89;40.29;95498.63;5032437;28;20620;-65
2021/07/09 08:52:38;;;;;;;8.17;7.10;;;;;;;30.21;38.81;95499.91;5031998;28;20193;-66
2021/07/09 08:55:11;;;;;;;10.77;6.20;;;;;;;29.99;37.64;95498.03;5032284;28;20205;-65
2021/07/09 08:57:40;;;;;;;10.23;6.23;;;;;;;29.83;38.14;95500.13;5030637;28;20201;-66
2021/07/09 09:00:27;;;;;;;9.67;6.30;;;;;;;29.89;37.29;95501.34;5031435;28;20209;-65
2021/07/09 09:02:55;;;;;;;9.00;6.67;;;;;;;30.30;38.11;95496.94;5023663;28;20231;-67
2021/07/09 09:05:26;;;;;;;8.70;7.00;;;;;;;30.07;38.73;95493.50;5007751;28;20193;-69
2021/07/09 09:08:04;;;;;;;10.33;6.67;;;;;;;30.52;38.73;95494.16;5014381;28;20322;-67
2021/07/09 09:10:45;;;;;;;10.73;7.77;;;;;;;30.36;37.71;95495.50;5030355;28;20212;-66
2021/07/09 09:13:17;;;;;;;9.30;7.67;;;;;;;30.68;38.45;95486.63;5028860;28;20288;-65
2021/07/09 09:16:05;;;;;;;8.37;7.00;;;;;;;30.67;38.00;95478.88;5023347;28;20217;-67
2021/07/09 09:18:36;;;;;;;9.23;8.27;;;;;;;30.33;39.01;95469.94;5031747;28;20207;-68
2021/07/09 09:21:10;;;;;;;7.30;6.63;;;;;;;30.69;38.31;95474.63;5031335;28;20573;-66
2021/07/09 09:23:51;;;;;;;7.40;6.60;;;;;;;30.91;37.33;95477.63;5031293;28;20236;-67
2021/07/09 09:26:40;;;;;;;7.27;6.57;;;;;;;31.03;36.63;95490.91;5009066;28;20204;-67
2021/07/09 09:29:36;;;;;;;6.93;6.23;;;;;;;30.65;36.19;95454.91;5028013;28;20211;-66
2021/07/09 09:32:06;;;;;;;7.30;6.10;;;;;;;31.29;36.68;95477.25;5023133;28;20217;-68
2021/07/09 09:34:45;;;;;;;8.50;6.23;;;;;;;31.14;36.48;95478.25;5031271;28;20212;-65
2021/07/09 09:37:18;;;;;;;7.40;5.87;;;;;;;30.92;36.28;95479.97;5031559;28;20192;-67
2021/07/09 09:39:47;;;;;;;8.13;5.90;;;;;;;31.39;35.70;95471.94;5019572;28;20192;-67
2021/07/09 09:42:22;;;;;;;6.10;5.43;;;;;;;31.39;35.70;95465.75;5030976;28;20239;-65
2021/07/09 09:45:00;;;;;;;10.83;6.27;;;;;;;31.66;36.19;95453.59;5029544;28;20291;-67
2021/07/09 09:47:30;;;;;;;8.23;6.63;;;;;;;31.72;34.72;95466.41;5030808;28;20221;-67
2021/07/09 09:50:00;;;;;;;10.53;6.60;;;;;;;31.98;35.02;95468.16;5030930;28;20209;-66
2021/07/09 09:52:40;;;;;;;10.43;6.63;;;;;;;32.13;34.96;95466.31;5031126;28;20285;-67
2021/07/09 09:55:09;;;;;;;8.70;6.20;;;;;;;32.02;34.60;95466.28;5030321;28;20205;-66
2021/07/09 09:57:38;;;;;;;7.80;6.60;;;;;;;31.91;34.34;95470.84;5030135;28;20207;-67
2021/07/09 10:00:07;;;;;;;8.13;6.80;;;;;;;31.78;34.41;95462.22;5029901;28;20230;-65
2021/07/09 10:02:36;;;;;;;9.17;7.00;;;;;;;31.87;34.92;95461.88;5028685;28;20241;-66
2021/07/09 10:05:04;;;;;;;12.83;7.10;;;;;;;32.01;34.62;95459.28;5029739;28;20197;-66
2021/07/09 10:07:36;;;;;;;12.63;7.50;;;;;;;31.59;35.37;95453.53;5031001;28;20659;-67
2021/07/09 10:10:04;;;;;;;9.30;7.80;;;;;;;32.11;36.22;95452.38;5031037;28;20213;-66
2021/07/09 10:12:32;;;;;;;7.47;6.67;;;;;;;32.03;35.19;95443.41;5030361;28;20220;-65
2021/07/09 10:15:02;;;;;;;14.37;6.77;;;;;;;32.45;35.19;95451.00;5030524;28;20193;-67
2021/07/09 10:17:30;;;;;;;8.73;6.87;;;;;;;32.32;34.12;95442.41;5031130;28;20188;-66
2021/07/09 10:19:59;;;;;;;10.20;7.00;;;;;;;32.35;34.69;95441.66;5030460;28;20526;-65
2021/07/09 10:22:46;;;;;;;7.70;5.93;;;;;;;32.61;33.64;95433.25;5025239;28;20729;-65
2021/07/09 10:25:15;;;;;;;7.83;6.97;;;;;;;32.54;34.89;95433.22;5010796;28;20201;-69
2021/07/09 10:27:43;;;;;;;6.70;6.10;;;;;;;32.81;33.60;95430.97;5029423;28;20201;-66
2021/07/09 10:30:11;;;;;;;8.00;7.00;;;;;;;32.97;33.75;95422.50;5030656;28;20563;-67
2021/07/09 10:32:42;;;;;;;8.17;6.60;;;;;;;33.10;33.57;95429.91;5030299;28;20217;-67
2021/07/09 10:35:11;;;;;;;6.37;5.77;;;;;;;32.99;33.18;95437.28;5029997;28;20212;-67
2021/07/09 10:37:38;;;;;;;8.13;5.47;;;;;;;32.93;32.12;95427.13;5030522;28;20217;-66
2021/07/09 10:40:23;;;;;;;6.83;5.60;;;;;;;33.03;33.15;95420.97;5030035;28;20196;-66
2021/07/09 10:42:52;;;;;;;5.60;5.20;;;;;;;33.26;33.37;95422.16;5030130;28;20224;-67
2021/07/09 10:45:22;;;;;;;7.03;4.90;;;;;;;33.48;32.88;95420.25;5030353;28;20197;-66
2021/07/09 10:47:52;;;;;;;4.90;4.50;;;;;;;33.25;31.75;95409.72;5030382;28;20220;-67
2021/07/09 10:50:40;;;;;;;7.03;4.37;;;;;;;33.22;32.64;95404.31;5029621;28;20197;-67
2021/07/09 10:53:09;;;;;;;6.43;4.80;;;;;;;33.22;32.40;95401.59;5018992;28;20207;-66
2021/07/09 10:55:39;;;;;;;5.13;4.53;;;;;;;32.89;32.19;95412.75;5029919;28;20193;-68
2021/07/09 10:58:06;;;;;;;4.57;4.17;;;;;;;32.91;31.76;95408.50;5030195;28;20293;-67
2021/07/09 11:00:50;;;;;;;7.77;4.50;;;;;;;33.08;31.80;95398.88;5029254;28;20775;-67
2021/07/09 11:03:52;;;;;;;5.60;4.17;;;;;;;32.17;32.65;95408.22;5017944;28;20267;-67
2021/07/09 11:06:33;;;;;;;5.30;4.33;;;;;;;32.91;32.69;95402.28;5012000;28;20590;-69
2021/07/09 11:09:10;;;;;;;4.90;4.50;;;;;;;33.23;31.69;95386.84;5029949;28;20228;-67
2021/07/09 11:11:53;;;;;;;3.73;3.43;;;;;;;32.97;30.44;95379.84;5029595;28;20228;-68
2021/07/09 11:14:34;;;;;;;4.47;4.07;;;;;;;32.88;31.03;95386.78;5029930;28;20209;-67
2021/07/09 11:17:19;;;;;;;4.83;3.70;;;;;;;33.08;30.91;95380.63;5033064;28;20196;-66
2021/07/09 11:20:12;;;;;;;5.17;4.17;;;;;;;33.54;30.94;95380.66;5030366;28;20640;-66
2021/07/09 11:22:44;;;;;;;5.27;4.10;;;;;;;33.55;30.19;95387.63;5030621;28;20229;-66
2021/07/09 11:25:20;;;;;;;4.87;4.40;;;;;;;33.46;30.97;95368.25;5032458;28;20287;-70
2021/07/09 11:27:52;;;;;;;5.03;4.20;;;;;;;33.16;29.71;95371.31;5031984;28;20226;-65
2021/07/09 11:30:24;;;;;;;4.53;4.13;;;;;;;33.57;29.70;95364.34;5030318;28;20204;-67
2021/07/09 11:32:54;;;;;;;4.53;3.57;;;;;;;33.86;29.26;95365.06;5029640;28;20197;-66
2021/07/09 11:35:21;;;;;;;4.50;4.10;;;;;;;33.72;29.73;95365.09;5029578;28;20219;-68
2021/07/09 11:37:48;;;;;;;5.40;3.73;;;;;;;33.70;30.62;95367.44;5029672;28;20244;-68